createdAt,value
2019-04-06T00:01:55.416Z,72.59
2019-04-06T00:04:24.895Z,72.62
2019-04-06T00:06:54.312Z,72.45
2019-04-06T00:09:23.704Z,72.33
2019-04-06T00:11:53.142Z,72.21
2019-04-06T00:14:22.553Z,72.32
2019-04-06T00:16:51.998Z,72.61
2019-04-06T00:19:21.467Z,72.71
2019-04-06T00:21:50.929Z,73.13
2019-04-06T00:24:20.304Z,73.00
2019-04-06T00:26:49.758Z,72.81
2019-04-06T00:29:19.139Z,73.11
2019-04-06T00:32:10.235Z,73.65
2019-04-06T00:34:39.637Z,74.84
2019-04-06T00:37:09.072Z,74.55
2019-04-06T00:39:38.505Z,76.79
2019-04-06T00:42:08.031Z,79.17
2019-04-06T00:44:37.411Z,81.70
2019-04-06T00:47:06.831Z,83.68
2019-04-06T00:49:36.217Z,84.55
2019-04-06T00:52:05.630Z,84.32
2019-04-06T00:54:35.022Z,83.99
2019-04-06T00:57:04.490Z,84.18
2019-04-06T00:59:33.879Z,83.13
2019-04-06T01:02:03.608Z,82.56
2019-04-06T01:04:32.997Z,81.06
2019-04-06T01:07:02.530Z,79.70
2019-04-06T01:09:31.921Z,78.11
2019-04-06T01:12:01.400Z,76.98
2019-04-06T01:14:30.825Z,76.39
2019-04-06T01:17:00.300Z,75.55
2019-04-06T01:19:29.666Z,75.10
2019-04-06T01:21:59.099Z,74.44
2019-04-06T01:24:28.482Z,74.47
2019-04-06T01:26:57.889Z,74.09
2019-04-06T01:29:27.324Z,73.75
2019-04-06T01:31:56.719Z,73.41
2019-04-06T01:34:26.150Z,73.17
2019-04-06T01:36:55.542Z,72.39
2019-04-06T01:39:24.971Z,72.38
2019-04-06T01:41:54.426Z,72.18
2019-04-06T01:44:23.864Z,72.27
2019-04-06T01:46:53.263Z,72.14
2019-04-06T01:49:22.699Z,72.19
2019-04-06T01:51:52.091Z,71.99
2019-04-06T01:54:21.625Z,72.07
2019-04-06T01:56:51.021Z,73.18
2019-04-06T01:59:20.472Z,73.00
2019-04-06T02:02:06.986Z,73.44
2019-04-06T02:04:36.429Z,75.82
2019-04-06T02:07:05.964Z,79.48
2019-04-06T02:09:35.385Z,82.63
2019-04-06T02:12:04.801Z,81.82
2019-04-06T02:14:34.225Z,80.12
2019-04-06T02:17:03.741Z,78.68
2019-04-06T02:19:33.268Z,81.02
2019-04-06T02:22:02.673Z,81.58
2019-04-06T02:24:32.117Z,81.21
2019-04-06T02:27:01.451Z,79.56
2019-04-06T02:29:30.899Z,78.51
2019-04-06T02:32:25.477Z,77.38
2019-04-06T02:35:16.806Z,78.80
2019-04-06T02:37:53.621Z,78.17
2019-04-06T02:40:54.021Z,76.87
2019-04-06T02:43:26.044Z,75.93
2019-04-06T02:45:55.452Z,75.33
2019-04-06T02:48:24.873Z,75.93
2019-04-06T02:50:54.299Z,75.30
2019-04-06T02:53:23.694Z,74.87
2019-04-06T02:55:53.106Z,74.43
2019-04-06T02:58:23.624Z,74.65
2019-04-06T03:00:53.597Z,74.93
2019-04-06T03:03:22.936Z,74.68
2019-04-06T03:05:52.396Z,75.12
2019-04-06T03:08:21.772Z,74.73
2019-04-06T03:10:51.147Z,76.80
2019-04-06T03:13:20.542Z,80.64
2019-04-06T03:15:50.301Z,79.21
2019-04-06T03:18:19.674Z,79.95
2019-04-06T03:20:49.060Z,83.33
2019-04-06T03:23:18.474Z,84.01
2019-04-06T03:25:47.835Z,82.95
2019-04-06T03:28:17.434Z,81.47
2019-04-06T03:30:46.842Z,83.07
2019-04-06T03:33:35.246Z,82.93
2019-04-06T03:36:04.842Z,81.36
2019-04-06T03:38:34.507Z,81.35
2019-04-06T03:41:04.179Z,81.18
2019-04-06T03:43:34.072Z,80.45
2019-04-06T03:46:03.972Z,78.86
2019-04-06T03:48:33.645Z,77.42
2019-04-06T03:51:03.259Z,76.16
2019-04-06T03:53:32.989Z,75.71
2019-04-06T03:56:02.655Z,75.56
2019-04-06T03:58:32.576Z,75.06
2019-04-06T04:01:02.170Z,74.09
2019-04-06T04:03:31.628Z,73.54
2019-04-06T04:06:01.276Z,74.02
2019-04-06T04:08:31.085Z,75.59
2019-04-06T04:11:00.774Z,75.54
2019-04-06T04:13:30.429Z,75.03
2019-04-06T04:16:00.022Z,74.28
2019-04-06T04:18:29.665Z,73.67
2019-04-06T04:20:59.536Z,73.40
2019-04-06T04:23:29.179Z,74.17
2019-04-06T04:25:59.148Z,74.92
2019-04-06T04:28:29.000Z,79.70
2019-04-06T04:30:58.627Z,81.10
2019-04-06T04:33:28.557Z,81.22
2019-04-06T04:35:58.985Z,81.59
2019-04-06T04:38:28.584Z,80.70
2019-04-06T04:40:58.241Z,78.66
2019-04-06T04:43:27.909Z,77.44
2019-04-06T04:45:57.633Z,76.33
2019-04-06T04:48:27.317Z,75.17
2019-04-06T04:50:57.195Z,74.36
2019-04-06T04:53:26.844Z,74.21
2019-04-06T04:55:56.797Z,74.72
2019-04-06T04:58:26.607Z,74.73
2019-04-06T05:00:56.245Z,73.84
2019-04-06T05:03:25.965Z,75.45
2019-04-06T05:05:55.552Z,78.61
2019-04-06T05:08:25.193Z,81.39
2019-04-06T05:10:54.751Z,81.49
2019-04-06T05:13:24.549Z,83.29
2019-04-06T05:16:10.645Z,83.61
2019-04-06T05:18:40.639Z,82.50
2019-04-06T05:21:10.292Z,82.90
2019-04-06T05:23:40.010Z,82.99
2019-04-06T05:26:09.663Z,81.20
2019-04-06T05:28:39.220Z,79.78
2019-04-06T05:31:08.939Z,79.24
2019-04-06T05:33:38.440Z,78.59
2019-04-06T05:36:08.090Z,79.61
2019-04-06T05:38:37.762Z,81.35
2019-04-06T05:41:07.375Z,83.21
2019-04-06T05:43:37.073Z,85.27
2019-04-06T05:46:06.998Z,86.62
2019-04-06T05:48:37.007Z,87.30
2019-04-06T05:51:06.857Z,86.10
2019-04-06T05:53:36.552Z,84.51
2019-04-06T05:56:06.292Z,81.67
2019-04-06T05:58:36.159Z,78.42
2019-04-06T06:01:05.889Z,76.21
2019-04-06T06:03:35.725Z,77.07
2019-04-06T06:06:05.732Z,78.11
2019-04-06T06:08:35.510Z,80.49
2019-04-06T06:11:05.254Z,81.94
2019-04-06T06:13:34.907Z,80.53
2019-04-06T06:16:04.866Z,77.65
2019-04-06T06:18:34.558Z,74.66
2019-04-06T06:21:04.531Z,77.12
2019-04-06T06:23:34.312Z,76.85
2019-04-06T06:26:04.039Z,74.07
2019-04-06T06:28:33.833Z,71.33
2019-04-06T06:31:03.627Z,67.78
2019-04-06T06:33:33.354Z,66.31
2019-04-06T06:36:03.346Z,66.95
2019-04-06T06:38:33.064Z,69.82
2019-04-06T06:41:03.050Z,71.27
2019-04-06T06:43:32.674Z,68.77
2019-04-06T06:46:02.546Z,66.39
2019-04-06T06:48:32.964Z,69.91
2019-04-06T06:51:02.907Z,70.53
2019-04-06T06:53:32.935Z,69.41
2019-04-06T06:56:02.826Z,73.09
2019-04-06T06:58:32.676Z,73.02
2019-04-06T07:01:03.287Z,74.33
2019-04-06T07:03:33.337Z,73.14
2019-04-06T07:06:03.492Z,70.53
2019-04-06T07:08:33.439Z,68.84
2019-04-06T07:11:04.108Z,70.56
2019-04-06T07:13:34.090Z,73.88
2019-04-06T07:16:04.535Z,74.48
2019-04-06T07:18:34.433Z,71.25
2019-04-06T07:21:04.441Z,69.49
2019-04-06T07:23:34.572Z,70.64
2019-04-06T07:26:04.584Z,70.83
2019-04-06T07:28:38.167Z,67.02
2019-04-06T07:31:06.358Z,68.77
2019-04-06T07:33:35.986Z,70.54
2019-04-06T07:36:05.699Z,70.32
2019-04-06T07:38:37.833Z,68.69
2019-04-06T07:41:06.897Z,64.06
2019-04-06T07:43:36.521Z,63.05
2019-04-06T07:46:06.296Z,61.68
2019-04-06T07:48:36.036Z,61.68
2019-04-06T07:51:05.817Z,65.63
2019-04-06T07:55:42.336Z,59.34
2019-04-06T07:58:12.029Z,53.45
2019-04-06T08:00:41.637Z,46.05
2019-04-06T08:03:11.370Z,52.30
2019-04-06T08:05:41.082Z,59.00
2019-04-06T08:09:51.058Z,57.17
2019-04-06T08:12:21.163Z,54.13
2019-04-06T08:14:50.948Z,53.87
2019-04-06T08:17:20.680Z,57.77
2019-04-06T08:19:50.405Z,55.10
2019-04-06T08:22:20.232Z,49.60
2019-04-06T08:24:49.934Z,45.09
2019-04-06T08:27:19.575Z,39.51
2019-04-06T08:29:49.329Z,37.61
2019-04-06T08:32:18.967Z,40.99
2019-04-06T08:34:48.662Z,39.69
2019-04-06T08:37:18.178Z,37.53
2019-04-06T08:39:47.899Z,35.46
2019-04-06T08:42:17.554Z,36.11
2019-04-06T08:44:47.196Z,33.99
2019-04-06T08:47:16.840Z,35.31
2019-04-06T08:49:46.484Z,32.01
2019-04-06T08:52:16.029Z,30.33
2019-04-06T08:54:45.715Z,31.71
2019-04-06T08:57:15.377Z,29.71
2019-04-06T08:59:45.061Z,29.25
2019-04-06T09:02:14.716Z,27.71
2019-04-06T09:04:44.351Z,25.28
2019-04-06T09:07:13.997Z,24.82
2019-04-06T09:09:44.099Z,25.41
2019-04-06T09:12:13.647Z,26.78
2019-04-06T09:14:43.315Z,37.76
2019-04-06T09:17:12.975Z,41.29
2019-04-06T09:19:42.598Z,40.86
2019-04-06T09:22:12.183Z,41.12
2019-04-06T09:24:42.046Z,39.91
2019-04-06T09:27:11.709Z,40.78
2019-04-06T09:29:41.249Z,40.07
2019-04-06T09:32:10.928Z,36.19
2019-04-06T09:34:40.564Z,36.65
2019-04-06T09:37:10.227Z,33.69
2019-04-06T09:39:39.908Z,31.55
2019-04-06T09:42:09.573Z,32.52
2019-04-06T09:44:54.491Z,32.54
2019-04-06T09:47:28.752Z,33.42
2019-04-06T09:50:16.129Z,33.74
2019-04-06T09:53:04.723Z,35.55
2019-04-06T09:56:05.624Z,34.57
2019-04-06T09:59:00.131Z,36.55
2019-04-06T10:01:40.177Z,35.14
2019-04-06T10:04:20.032Z,31.12
2019-04-06T10:06:57.677Z,24.89
2019-04-06T10:09:35.105Z,23.90
2019-04-06T10:12:32.476Z,21.51
2019-04-06T10:15:24.143Z,24.55
2019-04-06T10:18:19.832Z,25.67
2019-04-06T10:21:23.411Z,24.27
2019-04-06T10:24:27.357Z,26.86
2019-04-06T10:27:22.223Z,31.29
2019-04-06T10:30:11.137Z,31.58
2019-04-06T10:33:01.477Z,34.33
2019-04-06T10:35:56.072Z,37.21
2019-04-06T10:38:43.395Z,39.24
2019-04-06T10:41:30.719Z,39.89
2019-04-06T10:44:25.105Z,42.00
2019-04-06T10:47:12.558Z,40.22
2019-04-06T10:50:04.874Z,42.08
2019-04-06T10:53:05.528Z,41.36
2019-04-06T10:55:52.949Z,41.24
2019-04-06T10:58:40.099Z,41.91
2019-04-06T11:01:31.604Z,41.26
2019-04-06T11:04:21.841Z,41.90
2019-04-06T11:07:09.198Z,39.97
2019-04-06T11:10:06.734Z,40.24
2019-04-06T11:12:55.413Z,39.82
2019-04-06T11:15:44.733Z,37.73
2019-04-06T11:18:32.317Z,38.26
2019-04-06T11:21:19.534Z,35.57
2019-04-06T11:24:23.376Z,38.76
2019-04-06T11:27:27.248Z,39.60
2019-04-06T11:30:12.811Z,39.69
2019-04-06T11:32:53.341Z,38.99
2019-04-06T11:35:50.959Z,39.44
2019-04-06T11:38:38.597Z,41.40
2019-04-06T11:41:33.180Z,37.88
2019-04-06T11:44:31.113Z,36.46
2019-04-06T11:47:29.334Z,35.70
2019-04-06T11:50:24.035Z,35.53
2019-04-06T11:53:08.999Z,38.32
2019-04-06T11:56:00.316Z,37.68
2019-04-06T11:59:01.421Z,36.67
2019-04-06T12:01:59.539Z,39.29
2019-04-06T12:04:47.179Z,40.32
2019-04-06T12:07:39.415Z,42.24
2019-04-06T12:10:27.960Z,42.99
2019-04-06T12:13:11.706Z,42.27
2019-04-06T12:15:59.028Z,43.83
2019-04-06T12:18:56.188Z,43.76
2019-04-06T12:21:33.568Z,43.23
2019-04-06T12:24:25.189Z,40.17
2019-04-06T12:27:06.285Z,37.86
2019-04-06T12:30:04.119Z,35.20
2019-04-06T12:32:51.116Z,31.87
2019-04-06T12:35:33.978Z,33.29
2019-04-06T12:38:31.288Z,35.94
2019-04-06T12:41:17.046Z,37.28
2019-04-06T12:44:18.065Z,37.38
2019-04-06T12:47:22.090Z,38.68
2019-04-06T12:50:09.710Z,39.07
2019-04-06T12:52:52.580Z,42.12
2019-04-06T12:55:53.467Z,38.82
2019-04-06T12:58:48.748Z,42.08
2019-04-06T13:01:37.437Z,43.47
2019-04-06T13:04:35.204Z,43.10
2019-04-06T13:07:26.931Z,42.03
2019-04-06T13:10:34.010Z,42.44
2019-04-06T13:13:22.689Z,43.19
2019-04-06T13:16:05.206Z,43.89
2019-04-06T13:18:52.504Z,44.00
2019-04-06T13:21:43.815Z,41.77
2019-04-06T13:24:23.520Z,44.20
2019-04-06T13:27:18.461Z,45.24
2019-04-06T13:30:06.937Z,45.01
2019-04-06T13:33:11.201Z,44.81
2019-04-06T13:35:53.245Z,44.60
2019-04-06T13:38:44.650Z,44.00
2019-04-06T13:41:32.562Z,44.54
2019-04-06T13:44:36.591Z,44.61
2019-04-06T13:47:28.231Z,45.77
2019-04-06T13:50:05.265Z,44.86
2019-04-06T13:52:56.629Z,45.09
2019-04-06T13:55:43.961Z,44.83
2019-04-06T13:58:47.975Z,43.44
2019-04-06T14:01:33.447Z,43.36
2019-04-06T14:04:12.381Z,44.53
2019-04-06T14:07:04.058Z,45.44
2019-04-06T14:10:02.208Z,44.61
2019-04-06T14:12:49.702Z,42.90
2019-04-06T14:15:37.029Z,43.04
2019-04-06T14:18:16.975Z,43.44
2019-04-06T14:21:04.476Z,44.13
2019-04-06T14:23:48.963Z,42.82
2019-04-06T14:26:55.739Z,41.30
2019-04-06T14:29:50.413Z,41.52
2019-04-06T14:32:42.242Z,43.16
2019-04-06T14:35:36.967Z,42.43
2019-04-06T14:38:32.220Z,41.06
2019-04-06T14:41:30.042Z,41.10
2019-04-06T14:44:16.850Z,40.92
2019-04-06T14:47:14.420Z,41.04
2019-04-06T14:50:08.800Z,41.47
2019-04-06T14:52:56.354Z,43.12
2019-04-06T14:55:36.079Z,42.26
2019-04-06T14:58:24.767Z,42.82
2019-04-06T15:01:13.388Z,41.60
2019-04-06T15:04:11.267Z,40.51
2019-04-06T15:06:56.168Z,41.43
2019-04-06T15:09:40.473Z,41.08
2019-04-06T15:12:32.122Z,41.14
2019-04-06T15:15:19.831Z,41.86
2019-04-06T15:17:59.311Z,40.17
2019-04-06T15:20:48.751Z,38.85
2019-04-06T15:23:37.001Z,38.90
2019-04-06T15:26:21.876Z,37.04
2019-04-06T15:29:02.739Z,36.68
2019-04-06T15:32:03.562Z,37.26
2019-04-06T15:35:07.327Z,39.41
2019-04-06T15:37:58.976Z,39.19
2019-04-06T15:40:50.725Z,38.98
2019-04-06T15:43:48.786Z,39.70
2019-04-06T15:46:30.120Z,39.03
2019-04-06T15:49:18.769Z,40.10
2019-04-06T15:51:56.439Z,39.55
2019-04-06T15:54:44.885Z,38.92
2019-04-06T15:57:32.413Z,38.02
2019-04-06T16:00:08.267Z,40.71
2019-04-06T16:03:00.066Z,40.12
2019-04-06T16:05:42.372Z,41.26
2019-04-06T16:08:37.112Z,41.03
2019-04-06T16:11:35.172Z,40.84
2019-04-06T16:14:29.774Z,40.73
2019-04-06T16:17:08.283Z,41.08
2019-04-06T16:20:05.746Z,41.35
2019-04-06T16:22:54.194Z,41.69
2019-04-06T16:25:55.175Z,41.39
2019-04-06T16:28:42.766Z,40.49
2019-04-06T16:31:34.276Z,40.37
2019-04-06T16:34:16.514Z,40.41
2019-04-06T16:37:07.915Z,40.54
2019-04-06T16:39:48.684Z,41.98
2019-04-06T16:42:43.071Z,43.42
2019-04-06T16:45:30.958Z,43.60
2019-04-06T16:48:22.223Z,42.05
2019-04-06T16:51:09.446Z,42.22
2019-04-06T16:53:56.973Z,42.00
2019-04-06T16:56:34.295Z,41.65
2019-04-06T16:59:28.542Z,42.05
2019-04-06T17:02:24.246Z,42.54
2019-04-06T17:05:09.131Z,42.40
2019-04-06T17:07:56.361Z,42.19
2019-04-06T17:10:44.919Z,42.85
2019-04-06T17:13:45.376Z,43.15
2019-04-06T17:16:49.067Z,43.12
2019-04-06T17:19:36.264Z,43.12
2019-04-06T17:22:22.142Z,43.28
2019-04-06T17:25:15.126Z,43.30
2019-04-06T17:28:12.773Z,43.16
2019-04-06T17:30:52.831Z,43.14
2019-04-06T17:33:42.922Z,43.38
2019-04-06T17:36:28.660Z,43.90
2019-04-06T17:39:20.641Z,44.22
2019-04-06T17:42:09.867Z,45.19
2019-04-06T17:44:48.420Z,45.55
2019-04-06T17:47:39.437Z,45.88
2019-04-06T17:50:28.083Z,46.03
2019-04-06T17:53:08.244Z,46.06
2019-04-06T17:55:55.930Z,46.59
2019-04-06T17:58:52.001Z,46.71
2019-04-06T18:01:39.461Z,46.80
2019-04-06T18:04:28.202Z,46.43
2019-04-06T18:07:16.743Z,46.88
2019-04-06T18:09:58.385Z,47.45
2019-04-06T18:12:45.939Z,48.28
2019-04-06T18:15:16.531Z,48.20
2019-04-06T18:17:46.120Z,47.78
2019-04-06T18:20:16.244Z,47.72
2019-04-06T18:22:45.818Z,48.13
2019-04-06T18:25:15.731Z,48.25
2019-04-06T18:27:45.239Z,48.08
2019-04-06T18:30:14.921Z,48.05
2019-04-06T18:33:03.055Z,47.70
2019-04-06T18:35:32.616Z,47.79
2019-04-06T18:38:14.982Z,48.19
2019-04-06T18:40:44.828Z,48.37
2019-04-06T18:43:14.468Z,48.52
2019-04-06T18:45:44.022Z,48.36
2019-04-06T18:48:13.476Z,48.32
2019-04-06T18:50:43.153Z,48.56
2019-04-06T18:53:12.772Z,48.81
2019-04-06T18:55:42.774Z,48.78
2019-04-06T18:58:13.556Z,48.73
2019-04-06T19:00:43.579Z,48.80
2019-04-06T19:03:15.390Z,48.79
2019-04-06T19:05:44.604Z,48.98
2019-04-06T19:08:14.326Z,48.95
2019-04-06T19:10:44.179Z,48.82
2019-04-06T19:13:13.746Z,48.96
2019-04-06T19:15:43.416Z,49.03
2019-04-06T19:18:13.456Z,49.35
2019-04-06T19:20:43.782Z,49.33
2019-04-06T19:23:13.670Z,49.29
2019-04-06T19:25:43.723Z,49.49
2019-04-06T19:28:13.341Z,49.18
2019-04-06T19:30:43.083Z,49.26
2019-04-06T19:33:22.713Z,49.25
2019-04-06T19:35:44.056Z,49.63
2019-04-06T19:38:14.167Z,50.01
2019-04-06T19:40:43.891Z,50.81
2019-04-06T19:43:13.654Z,50.93
2019-04-06T19:45:43.306Z,50.59
2019-04-06T19:48:12.770Z,50.44
2019-04-06T19:50:42.331Z,50.26
2019-04-06T19:53:12.411Z,50.31
2019-04-06T19:55:42.250Z,50.20
2019-04-06T19:58:11.910Z,50.01
2019-04-06T20:00:41.476Z,49.79
2019-04-06T20:03:11.092Z,49.57
2019-04-06T20:05:41.144Z,49.22
2019-04-06T20:08:10.760Z,48.98
2019-04-06T20:10:40.418Z,48.93
2019-04-06T20:13:09.960Z,48.57
2019-04-06T20:15:39.822Z,48.63
2019-04-06T20:18:09.423Z,48.61
2019-04-06T20:20:38.968Z,48.73
2019-04-06T20:23:08.532Z,48.73
2019-04-06T20:25:37.999Z,48.81
2019-04-06T20:28:07.644Z,48.63
2019-04-06T20:30:37.578Z,48.30
2019-04-06T20:33:07.188Z,48.47
2019-04-06T20:35:37.236Z,49.45
2019-04-06T20:38:07.144Z,50.20
2019-04-06T20:40:36.861Z,50.33
2019-04-06T20:43:06.588Z,50.76
2019-04-06T20:45:36.071Z,50.64
2019-04-06T20:48:06.065Z,50.06
2019-04-06T20:50:35.687Z,49.95
2019-04-06T20:53:05.573Z,50.55
2019-04-06T20:55:35.375Z,50.50
2019-04-06T20:58:04.880Z,50.46
2019-04-06T21:00:34.629Z,50.55
2019-04-06T21:03:05.073Z,50.72
2019-04-06T21:05:34.690Z,51.24
2019-04-06T21:08:04.617Z,51.46
2019-04-06T21:10:35.021Z,51.46
2019-04-06T21:13:04.714Z,51.37
2019-04-06T21:15:34.166Z,51.34
2019-04-06T21:18:03.702Z,51.76
2019-04-06T21:20:33.164Z,52.08
2019-04-06T21:23:02.893Z,52.19
2019-04-06T21:25:32.470Z,51.94
2019-04-06T21:28:02.652Z,52.46
2019-04-06T21:30:32.460Z,52.49
2019-04-06T21:33:02.034Z,52.85
2019-04-06T21:35:31.729Z,53.61
2019-04-06T21:38:01.986Z,54.65
2019-04-06T21:40:31.692Z,54.55
2019-04-06T21:43:01.609Z,54.07
2019-04-06T21:45:31.096Z,53.72
2019-04-06T21:48:00.643Z,53.57
2019-04-06T21:50:30.192Z,53.62
2019-04-06T21:52:59.739Z,53.60
2019-04-06T21:55:29.200Z,53.49
2019-04-06T21:57:58.654Z,53.53
2019-04-06T22:00:43.636Z,54.64
2019-04-06T22:03:13.251Z,54.74
2019-04-06T22:05:42.786Z,54.49
2019-04-06T22:08:12.308Z,54.49
2019-04-06T22:10:42.354Z,54.49
2019-04-06T22:13:11.823Z,54.76
2019-04-06T22:15:41.451Z,55.10
2019-04-06T22:18:11.503Z,55.49
2019-04-06T22:20:41.123Z,55.79
2019-04-06T22:23:10.705Z,56.13
2019-04-06T22:25:40.330Z,56.45
2019-04-06T22:28:09.992Z,56.66
2019-04-06T22:30:40.477Z,56.94
2019-04-06T22:33:09.910Z,57.23
2019-04-06T22:35:39.577Z,57.48
2019-04-06T22:38:09.189Z,57.53
2019-04-06T22:40:38.786Z,57.89
2019-04-06T22:43:08.827Z,58.20
2019-04-06T22:45:38.427Z,58.32
2019-04-06T22:48:09.135Z,58.70
2019-04-06T22:50:39.301Z,58.57
2019-04-06T22:53:09.512Z,58.56
2019-04-06T22:55:39.538Z,58.83
2019-04-06T22:58:09.345Z,58.99
2019-04-06T23:00:48.506Z,59.03
2019-04-06T23:03:36.679Z,59.12
2019-04-06T23:06:10.015Z,59.23
2019-04-06T23:08:40.752Z,59.24
2019-04-06T23:11:10.773Z,59.52
2019-04-06T23:13:40.320Z,59.62
2019-04-06T23:16:10.340Z,59.67
2019-04-06T23:18:40.107Z,59.61
2019-04-06T23:21:09.727Z,59.67
2019-04-06T23:23:39.591Z,59.67
2019-04-06T23:26:09.218Z,59.81
2019-04-06T23:28:38.934Z,59.92
2019-04-06T23:31:08.523Z,59.95
2019-04-06T23:33:38.119Z,59.95
2019-04-06T23:36:07.834Z,60.01
2019-04-06T23:38:37.924Z,60.04
2019-04-06T23:41:07.704Z,60.19
2019-04-06T23:43:37.412Z,60.23
2019-04-06T23:46:07.513Z,60.49
2019-04-06T23:48:37.091Z,60.53
2019-04-06T23:51:06.692Z,60.59
2019-04-06T23:53:37.311Z,60.69
2019-04-06T23:56:06.819Z,60.84
2019-04-06T23:58:36.463Z,60.61
